Time;durP1;ratioP1;P1;durP2;ratioP2;P2;SDS_P1;SDS_P2;PMS_P1;PMS_P2;Temp;Humidity;BMP_temperature;BMP_pressure;BME280_temperature;BME280_humidity;BME280_pressure;Samples;Min_cycle;Max_cycle;Signal;HPM_P1;HPM_P2
2021/11/03 00:02:21;;;;;;;16.70;4.35;;;;;;;3.00;100.00;97439.94;4996502;28;20031;-65
2021/11/03 00:04:47;;;;;;;6.65;3.70;;;;;;;3.08;100.00;97445.16;4990584;28;20030;-65
2021/11/03 00:07:13;;;;;;;8.05;4.53;;;;;;;3.10;100.00;97443.13;4999679;28;20030;-65
2021/11/03 00:09:40;;;;;;;6.07;4.00;;;;;;;3.19;100.00;97439.31;4995781;28;20405;-65
2021/11/03 00:12:08;;;;;;;8.15;4.25;;;;;;;3.25;100.00;97438.56;5000658;28;20029;-65
2021/11/03 00:14:33;;;;;;;6.63;4.38;;;;;;;3.24;100.00;97434.22;5000821;28;20041;-67
2021/11/03 00:16:59;;;;;;;6.93;4.90;;;;;;;3.26;100.00;97426.03;4997945;28;20026;-66
2021/11/03 00:19:24;;;;;;;6.22;4.30;;;;;;;3.35;100.00;97435.56;5005079;28;20044;-65
2021/11/03 00:21:49;;;;;;;5.63;4.53;;;;;;;3.43;100.00;97427.44;4997698;28;20030;-68
2021/11/03 00:24:15;;;;;;;7.03;4.32;;;;;;;3.49;100.00;97426.66;4998721;28;20026;-66
2021/11/03 00:26:40;;;;;;;6.75;4.32;;;;;;;3.64;100.00;97434.59;4992219;28;20022;-65
2021/11/03 00:29:06;;;;;;;8.02;5.35;;;;;;;3.74;100.00;97434.25;4995354;28;20365;-65
2021/11/03 00:31:31;;;;;;;7.60;4.93;;;;;;;3.80;100.00;97427.28;4995254;28;20022;-65
2021/11/03 00:33:57;;;;;;;8.95;5.85;;;;;;;3.77;100.00;97433.84;4998556;28;20705;-65
2021/11/03 00:36:23;;;;;;;7.93;5.53;;;;;;;3.81;100.00;97428.97;5014899;28;20534;-65
2021/11/03 00:38:48;;;;;;;7.10;5.22;;;;;;;3.82;100.00;97435.97;5014715;28;20030;-66
2021/11/03 00:41:13;;;;;;;8.90;5.63;;;;;;;3.80;100.00;97435.31;5005309;28;20081;-65
2021/11/03 00:43:38;;;;;;;8.35;5.72;;;;;;;3.86;100.00;97438.06;4987276;28;20049;-65
2021/11/03 00:46:04;;;;;;;10.65;5.72;;;;;;;3.82;100.00;97433.28;4998269;28;20025;-65
2021/11/03 00:48:29;;;;;;;9.55;5.68;;;;;;;3.84;100.00;97433.94;5012650;28;20034;-65
2021/11/03 00:50:55;;;;;;;9.75;5.82;;;;;;;3.83;100.00;97426.94;5026627;28;20029;-66
2021/11/03 00:53:20;;;;;;;9.00;5.07;;;;;;;3.79;100.00;97401.56;5033348;28;20028;-66
2021/11/03 00:55:46;;;;;;;7.65;5.30;;;;;;;3.95;100.00;97422.69;5029192;28;20032;-65
2021/11/03 00:58:12;;;;;;;6.93;5.45;;;;;;;4.01;100.00;97405.00;5028923;28;20022;-67
2021/11/03 01:00:37;;;;;;;7.40;4.97;;;;;;;4.10;100.00;97402.00;4995153;28;20041;-65
2021/11/03 01:03:04;;;;;;;8.55;5.45;;;;;;;4.17;100.00;97397.50;5015063;28;20028;-65
2021/11/03 01:05:29;;;;;;;7.15;4.65;;;;;;;4.25;100.00;97398.38;5013356;28;20034;-65
2021/11/03 01:07:55;;;;;;;12.15;5.10;;;;;;;4.30;100.00;97401.28;5018727;28;20030;-67
2021/11/03 01:10:23;;;;;;;7.90;4.65;;;;;;;4.36;100.00;97392.47;5012589;28;20038;-65
2021/11/03 01:12:48;;;;;;;11.38;5.07;;;;;;;4.45;100.00;97387.75;5014086;28;20423;-66
2021/11/03 01:15:18;;;;;;;9.00;5.45;;;;;;;4.47;100.00;97383.84;5012797;28;20055;-66
2021/11/03 01:17:43;;;;;;;4.60;2.55;;;;;;;4.63;100.00;97374.63;5013527;28;20029;-66
2021/11/03 01:20:12;;;;;;;5.72;2.97;;;;;;;4.70;100.00;97369.31;4995993;28;20086;-66
2021/11/03 01:22:38;;;;;;;6.70;3.67;;;;;;;4.72;100.00;97362.72;4992292;28;20023;-66
2021/11/03 01:25:06;;;;;;;7.50;4.90;;;;;;;4.70;100.00;97337.16;5009610;28;20026;-66
2021/11/03 01:27:31;;;;;;;6.90;4.05;;;;;;;4.75;100.00;97343.56;5014686;28;20550;-66
2021/11/03 01:29:56;;;;;;;5.32;3.90;;;;;;;4.66;100.00;97328.69;4993435;28;20027;-65
2021/11/03 01:32:21;;;;;;;7.00;3.97;;;;;;;4.71;100.00;97328.91;4993195;28;20027;-65
2021/11/03 01:34:47;;;;;;;2.25;1.70;;;;;;;4.91;100.00;97325.47;5001049;28;20151;-66
2021/11/03 01:37:12;;;;;;;2.20;1.30;;;;;;;5.02;100.00;97324.84;5013142;28;20060;-66
2021/11/03 01:39:37;;;;;;;2.60;1.70;;;;;;;5.03;100.00;97337.22;5011642;28;20109;-67
2021/11/03 01:42:03;;;;;;;3.53;2.35;;;;;;;4.93;100.00;97318.06;5011103;28;20129;-65
2021/11/03 01:44:28;;;;;;;4.78;2.85;;;;;;;5.08;100.00;97337.44;5010476;28;20386;-66
2021/11/03 01:46:57;;;;;;;8.75;2.08;;;;;;;5.02;100.00;97336.41;5031596;28;20029;-66
2021/11/03 01:49:29;;;;;;;3.80;2.13;;;;;;;5.13;100.00;97336.81;4995290;28;20053;-68
2021/11/03 01:52:00;;;;;;;2.75;1.50;;;;;;;5.25;100.00;97335.19;4994804;28;20017;-66
2021/11/03 01:54:33;;;;;;;3.92;1.70;;;;;;;5.30;100.00;97326.53;5001022;28;20503;-65
2021/11/03 01:57:02;;;;;;;2.40;1.52;;;;;;;5.33;100.00;97326.94;5004484;28;20050;-66
2021/11/03 01:59:35;;;;;;;1.95;0.93;;;;;;;5.42;100.00;97336.44;5007351;28;20030;-65
2021/11/03 02:02:01;;;;;;;3.55;1.00;;;;;;;5.36;100.00;97312.31;4996859;28;20092;-65
2021/11/03 02:04:27;;;;;;;2.40;1.42;;;;;;;5.42;100.00;97298.91;4991915;28;20399;-65
2021/11/03 02:06:55;;;;;;;2.30;1.58;;;;;;;5.55;100.00;97326.72;4998850;28;20029;-65
2021/11/03 02:09:21;;;;;;;2.65;1.95;;;;;;;5.51;100.00;97322.81;4994734;28;20038;-65
2021/11/03 02:11:46;;;;;;;7.05;2.83;;;;;;;5.51;100.00;97333.56;4986909;28;20026;-64
2021/11/03 02:14:12;;;;;;;4.13;1.08;;;;;;;5.39;100.00;97309.19;4988643;28;20495;-65
2021/11/03 02:16:42;;;;;;;2.85;1.77;;;;;;;5.49;100.00;97326.53;4974085;28;20038;-64
2021/11/03 02:19:13;;;;;;;3.22;1.75;;;;;;;5.51;100.00;97331.69;4985105;28;20038;-65
2021/11/03 02:21:47;;;;;;;2.10;1.50;;;;;;;5.45;100.00;97336.03;4995784;28;20022;-65
2021/11/03 02:24:25;;;;;;;1.80;1.30;;;;;;;5.25;100.00;97319.94;5000693;28;20495;-64
2021/11/03 02:26:51;;;;;;;3.53;1.13;;;;;;;5.27;100.00;97325.09;5013686;28;20021;-65
2021/11/03 02:29:20;;;;;;;4.03;1.10;;;;;;;5.17;100.00;97319.31;4995311;28;20030;-65
2021/11/03 02:31:53;;;;;;;3.88;1.10;;;;;;;5.33;100.00;97329.63;4977267;28;20034;-65
2021/11/03 02:34:23;;;;;;;1.55;1.02;;;;;;;5.33;100.00;97326.13;4995955;28;20038;-65
2021/11/03 02:36:59;;;;;;;2.45;1.20;;;;;;;5.32;100.00;97327.13;4989841;28;20060;-65
2021/11/03 02:39:34;;;;;;;2.83;1.00;;;;;;;5.24;100.00;97296.03;4974105;28;20035;-65
2021/11/03 02:41:59;;;;;;;1.45;0.80;;;;;;;5.32;100.00;97314.59;5003241;28;20033;-65
2021/11/03 02:44:26;;;;;;;2.53;1.02;;;;;;;5.31;100.00;97317.47;4995056;28;20373;-65
2021/11/03 02:46:51;;;;;;;4.93;1.20;;;;;;;5.30;100.00;97311.28;4991519;28;20022;-65
2021/11/03 02:49:16;;;;;;;2.25;1.17;;;;;;;5.27;100.00;97303.66;5010930;28;20022;-64
2021/11/03 02:51:43;;;;;;;2.17;1.05;;;;;;;5.33;100.00;97310.84;4994233;28;20049;-64
2021/11/03 02:54:15;;;;;;;3.67;1.38;;;;;;;5.33;100.00;97307.34;4990809;28;20027;-64
2021/11/03 02:56:47;;;;;;;2.35;0.95;;;;;;;5.38;100.00;97292.28;4979996;28;20455;-65
2021/11/03 02:59:14;;;;;;;3.50;1.10;;;;;;;5.31;100.00;97280.72;4997694;28;20425;-64
2021/11/03 03:01:41;;;;;;;2.55;1.08;;;;;;;5.34;100.00;97292.91;4991961;28;20034;-65
2021/11/03 03:04:24;;;;;;;2.35;0.90;;;;;;;5.36;100.00;97299.72;4990069;28;20061;-65
2021/11/03 03:06:50;;;;;;;2.47;0.95;;;;;;;5.56;100.00;97298.88;5000939;28;20072;-65
2021/11/03 03:09:16;;;;;;;1.65;0.93;;;;;;;5.53;100.00;97285.88;4991101;28;20030;-64
2021/11/03 03:11:46;;;;;;;1.13;0.80;;;;;;;5.54;100.00;97298.25;4976792;28;20029;-65
2021/11/03 03:14:12;;;;;;;1.73;0.85;;;;;;;5.49;100.00;97299.69;4989318;28;20026;-65
2021/11/03 03:16:37;;;;;;;2.15;1.00;;;;;;;5.47;100.00;97301.75;4991382;28;20064;-64
2021/11/03 03:19:04;;;;;;;4.43;1.05;;;;;;;5.45;100.00;97303.84;5002430;28;20027;-66
2021/11/03 03:21:30;;;;;;;1.35;1.00;;;;;;;5.47;100.00;97291.03;4982688;28;20041;-66
2021/11/03 03:23:56;;;;;;;2.28;1.55;;;;;;;5.46;100.00;97291.25;5011240;28;20428;-65
2021/11/03 03:26:22;;;;;;;2.85;1.33;;;;;;;5.49;100.00;97296.19;5015091;28;20084;-64
2021/11/03 03:28:49;;;;;;;2.28;1.30;;;;;;;5.61;100.00;97296.41;4999253;28;20053;-64
2021/11/03 03:31:15;;;;;;;3.40;1.58;;;;;;;5.67;100.00;97291.00;5004221;28;20129;-67
2021/11/03 03:33:40;;;;;;;2.70;1.10;;;;;;;5.72;100.00;97280.47;5013629;28;20029;-67
2021/11/03 03:36:06;;;;;;;2.00;1.20;;;;;;;5.68;100.00;97283.78;5003693;28;20030;-65
2021/11/03 03:38:32;;;;;;;2.33;1.20;;;;;;;5.63;100.00;97279.06;4985660;28;20057;-65
2021/11/03 03:40:58;;;;;;;4.38;1.17;;;;;;;5.54;100.00;97258.03;4980217;28;20030;-65
2021/11/03 03:43:23;;;;;;;1.67;1.02;;;;;;;5.60;100.00;97273.28;4986300;28;20616;-66
2021/11/03 03:45:50;;;;;;;4.47;1.30;;;;;;;5.62;100.00;97265.84;5013326;28;20030;-66
2021/11/03 03:48:15;;;;;;;3.88;0.90;;;;;;;5.53;100.00;97248.31;5042239;22;20394;-64
2021/11/03 03:50:40;;;;;;;4.20;1.20;;;;;;;5.56;100.00;97240.69;5054745;28;20025;-66
2021/11/03 03:53:06;;;;;;;3.60;1.10;;;;;;;5.48;100.00;97228.31;5055582;28;20020;-64
2021/11/03 03:55:31;;;;;;;2.90;1.27;;;;;;;5.67;100.00;97258.81;5052990;28;20052;-65
2021/11/03 03:57:57;;;;;;;1.98;1.08;;;;;;;5.67;100.00;97252.63;5053345;28;20025;-65
2021/11/03 04:00:23;;;;;;;1.08;0.80;;;;;;;5.68;100.00;97257.75;5046580;28;20421;-66
2021/11/03 04:02:52;;;;;;;3.60;1.20;;;;;;;5.66;100.00;97256.34;5035632;28;20045;-65
2021/11/03 04:05:19;;;;;;;7.53;1.50;;;;;;;5.67;100.00;97255.31;5047171;28;20040;-65
2021/11/03 04:07:44;;;;;;;1.98;0.90;;;;;;;5.59;100.00;97245.63;5055111;28;20283;-66
2021/11/03 04:10:10;;;;;;;6.45;3.03;;;;;;;5.59;100.00;97263.59;5054616;28;20105;-66
2021/11/03 04:12:36;;;;;;;2.58;1.20;;;;;;;5.51;100.00;97247.72;5054826;28;20043;-65
2021/11/03 04:15:02;;;;;;;3.63;1.60;;;;;;;5.62;100.00;97244.38;5050533;28;20059;-67
2021/11/03 04:17:27;;;;;;;2.42;1.10;;;;;;;5.84;100.00;97261.03;5053842;28;20033;-65
2021/11/03 04:19:53;;;;;;;4.22;1.33;;;;;;;5.88;100.00;97264.97;5051348;28;20051;-65
2021/11/03 04:22:18;;;;;;;2.70;1.10;;;;;;;5.90;100.00;97265.56;5053457;28;20505;-64
2021/11/03 04:24:44;;;;;;;2.75;1.10;;;;;;;5.78;100.00;97251.97;5044949;28;20029;-65
2021/11/03 04:27:10;;;;;;;4.72;1.50;;;;;;;5.85;100.00;97260.00;5054032;28;20063;-65
2021/11/03 04:29:35;;;;;;;3.17;1.60;;;;;;;5.83;100.00;97257.53;5053348;28;20031;-67
2021/11/03 04:32:00;;;;;;;5.93;2.00;;;;;;;5.87;100.00;97271.38;5046353;28;20082;-69
2021/11/03 04:34:27;;;;;;;1.50;1.30;;;;;;;5.82;100.00;97249.72;5036402;28;20143;-71
2021/11/03 04:36:53;;;;;;;2.65;1.25;;;;;;;5.80;100.00;97263.31;5048344;28;20063;-70
2021/11/03 04:39:19;;;;;;;2.42;1.10;;;;;;;5.82;100.00;97257.75;5049245;28;20103;-69
2021/11/03 04:41:44;;;;;;;2.65;1.38;;;;;;;5.78;100.00;97256.53;5049299;28;20120;-65
2021/11/03 04:44:09;;;;;;;3.20;1.25;;;;;;;5.77;100.00;97257.56;5052985;28;20021;-69
2021/11/03 04:46:35;;;;;;;2.95;1.27;;;;;;;5.77;100.00;97255.69;5052885;28;20021;-71
2021/11/03 04:49:00;;;;;;;2.53;1.40;;;;;;;5.75;100.00;97248.91;5048740;28;20533;-71
2021/11/03 04:51:26;;;;;;;1.50;1.10;;;;;;;5.77;100.00;97247.66;5043193;28;20062;-72
2021/11/03 04:53:52;;;;;;;4.00;1.80;;;;;;;5.71;100.00;97243.09;5051069;28;20079;-67
2021/11/03 04:56:22;;;;;;;4.90;1.48;;;;;;;5.63;100.00;97225.41;5046206;28;20037;-69
2021/11/03 04:58:52;;;;;;;3.15;1.30;;;;;;;5.68;100.00;97240.84;5047166;28;20512;-70
2021/11/03 05:01:21;;;;;;;2.78;1.10;;;;;;;5.67;100.00;97231.97;5049212;28;20049;-74
2021/11/03 05:03:48;;;;;;;3.10;1.13;;;;;;;5.72;100.00;97239.41;5049715;28;20024;-71
2021/11/03 05:06:17;;;;;;;2.40;1.27;;;;;;;5.75;100.00;97233.59;5052114;28;20020;-74
2021/11/03 05:08:43;;;;;;;1.52;1.05;;;;;;;5.72;100.00;97212.56;5048320;28;20043;-72
2021/11/03 05:11:08;;;;;;;1.92;1.20;;;;;;;5.71;100.00;97205.53;5043514;28;20026;-70
2021/11/03 05:13:34;;;;;;;1.80;0.90;;;;;;;5.81;100.00;97213.16;5036285;28;20037;-70
2021/11/03 05:16:01;;;;;;;2.33;1.10;;;;;;;5.82;100.00;97202.22;5036999;28;20048;-72
2021/11/03 05:18:26;;;;;;;3.33;1.50;;;;;;;5.69;100.00;97178.94;5042622;28;20485;-68
2021/11/03 05:20:51;;;;;;;3.05;1.02;;;;;;;5.99;100.00;97205.25;5052035;28;20075;-69
2021/11/03 05:23:16;;;;;;;2.75;1.13;;;;;;;6.03;100.00;97208.38;5051237;28;20028;-70
2021/11/03 05:25:42;;;;;;;4.43;1.70;;;;;;;5.99;100.00;97201.75;5049470;28;20025;-71
2021/11/03 05:28:09;;;;;;;2.72;1.40;;;;;;;5.94;100.00;97202.41;5052770;28;20025;-74
2021/11/03 05:30:35;;;;;;;1.80;1.40;;;;;;;6.08;100.00;97192.44;5051269;28;20028;-74
2021/11/03 05:33:00;;;;;;;4.05;1.40;;;;;;;5.86;100.00;97170.41;5053201;28;20021;-74
2021/11/03 05:35:25;;;;;;;2.83;1.33;;;;;;;6.05;100.00;97174.03;5052953;28;20027;-75
2021/11/03 05:37:52;;;;;;;1.75;1.20;;;;;;;6.10;100.00;97160.81;5046879;28;20083;-73
2021/11/03 05:40:22;;;;;;;2.95;1.30;;;;;;;6.28;100.00;97170.81;5048305;28;20110;-70
2021/11/03 05:42:47;;;;;;;2.72;1.48;;;;;;;6.26;100.00;97160.31;5043970;28;20071;-70
2021/11/03 05:45:16;;;;;;;1.60;1.20;;;;;;;6.27;100.00;97148.53;5046453;28;20025;-71
2021/11/03 05:47:42;;;;;;;3.10;0.90;;;;;;;6.46;100.00;97172.78;5038836;28;20037;-72
2021/11/03 05:50:13;;;;;;;3.20;1.42;;;;;;;6.52;99.17;97169.22;5034064;28;20032;-72
2021/11/03 05:52:38;;;;;;;3.75;1.35;;;;;;;6.49;99.45;97150.84;5036036;28;20099;-71
2021/11/03 05:55:04;;;;;;;1.65;0.90;;;;;;;6.52;98.02;97156.63;5041421;28;20024;-70
2021/11/03 05:57:33;;;;;;;2.05;1.30;;;;;;;6.55;98.75;97152.69;5052963;28;20029;-73
2021/11/03 06:00:00;;;;;;;;;;;;;;;6.54;97.57;97151.03;5050085;28;20378;-73
2021/11/03 06:02:25;;;;;;;2.95;0.80;;;;;;;6.44;97.78;97121.94;5045594;28;19924;-73
2021/11/03 06:04:51;;;;;;;3.20;0.85;;;;;;;6.43;97.30;97127.56;5044889;28;20025;-73
2021/11/03 06:07:20;;;;;;;5.18;0.90;;;;;;;6.61;96.16;97141.06;5041570;28;20048;-72
2021/11/03 06:09:46;;;;;;;1.50;0.82;;;;;;;6.66;94.47;97127.78;5036490;28;20045;-71
2021/11/03 06:12:12;;;;;;;1.92;0.60;;;;;;;6.78;93.18;97130.56;5035238;28;20079;-70
2021/11/03 06:14:37;;;;;;;1.55;0.77;;;;;;;6.73;94.33;97125.88;5033185;28;20037;-70
2021/11/03 06:17:03;;;;;;;1.92;0.65;;;;;;;6.47;97.21;97105.41;5036344;28;20025;-73
2021/11/03 06:19:28;;;;;;;1.65;0.98;;;;;;;6.45;100.00;97104.00;5049875;28;20025;-72
2021/11/03 06:21:54;;;;;;;1.60;1.10;;;;;;;6.48;98.58;97098.19;5049087;28;20044;-73
2021/11/03 06:24:21;;;;;;;2.80;0.80;;;;;;;6.51;99.79;97105.78;5052282;28;20020;-73
2021/11/03 06:26:46;;;;;;;5.22;0.80;;;;;;;6.38;96.63;97068.28;5050256;28;20025;-75
2021/11/03 06:29:12;;;;;;;2.83;0.90;;;;;;;6.48;97.97;97099.00;5048442;28;20475;-72
2021/11/03 06:31:38;;;;;;;0.82;0.80;;;;;;;6.59;96.70;97118.94;5047144;28;20430;-72
2021/11/03 06:34:05;;;;;;;1.35;0.90;;;;;;;6.75;94.90;97117.56;5054585;28;20490;-72
2021/11/03 06:36:31;;;;;;;2.17;1.17;;;;;;;6.52;95.81;97092.16;5042286;28;20079;-73
2021/11/03 06:38:57;;;;;;;0.75;0.60;;;;;;;6.75;94.47;97112.19;5051508;28;20017;-72
2021/11/03 06:41:23;;;;;;;0.70;0.50;;;;;;;6.77;91.58;97072.47;5053797;28;20561;-70
2021/11/03 06:43:49;;;;;;;1.20;0.52;;;;;;;6.98;91.96;97087.38;5048398;28;20103;-71
2021/11/03 06:46:14;;;;;;;1.35;0.60;;;;;;;6.93;88.45;97073.78;5053574;28;20067;-71
2021/11/03 06:48:40;;;;;;;1.25;0.80;;;;;;;7.18;88.61;97095.25;5056188;28;20037;-70
2021/11/03 06:51:06;;;;;;;1.35;0.50;;;;;;;7.23;87.37;97093.53;5050138;28;20406;-71
2021/11/03 06:53:32;;;;;;;2.13;0.88;;;;;;;7.26;86.87;97100.31;5055121;28;20047;-72
2021/11/03 06:55:59;;;;;;;0.82;0.63;;;;;;;7.28;86.83;97102.75;5052429;28;20032;-72
2021/11/03 06:58:25;;;;;;;3.33;0.80;;;;;;;7.32;86.01;97109.34;5049113;28;20025;-71
2021/11/03 07:00:53;;;;;;;1.05;0.60;;;;;;;7.29;85.88;97105.25;5046064;28;20079;-70
2021/11/03 07:03:19;;;;;;;1.58;0.65;;;;;;;7.58;84.27;97119.00;5053864;28;20028;-70
2021/11/03 07:05:46;;;;;;;1.25;0.57;;;;;;;7.63;83.65;97122.66;5053145;28;20048;-69
2021/11/03 07:08:12;;;;;;;0.50;0.35;;;;;;;7.66;83.86;97122.19;5053377;28;20025;-70
2021/11/03 07:10:42;;;;;;;1.33;0.40;;;;;;;7.67;83.60;97118.44;5048911;28;20026;-72
2021/11/03 07:13:07;;;;;;;;;;;;;;;7.64;84.39;97113.50;5043404;28;20033;-74
2021/11/03 07:15:33;;;;;;;0.82;0.60;;;;;;;7.53;82.50;97100.00;5045646;28;19939;-68
2021/11/03 07:17:59;;;;;;;1.00;0.40;;;;;;;7.70;81.36;97119.84;5052881;28;20033;-74
2021/11/03 07:20:26;;;;;;;1.70;0.82;;;;;;;7.57;80.29;97102.03;5048866;28;20112;-75
2021/11/03 07:22:51;;;;;;;1.45;0.60;;;;;;;7.87;80.68;97128.16;5055054;28;20029;-72
2021/11/03 07:25:21;;;;;;;0.60;0.40;;;;;;;8.01;79.71;97137.69;5049517;28;20033;-74
2021/11/03 07:27:50;;;;;;;0.80;0.32;;;;;;;8.05;80.49;97136.19;5048799;28;20063;-75
2021/11/03 07:30:18;;;;;;;1.38;0.50;;;;;;;7.99;79.84;97131.72;5048740;28;20039;-69
2021/11/03 07:32:44;;;;;;;1.67;0.50;;;;;;;8.00;80.21;97117.19;5047741;28;20037;-68
2021/11/03 07:35:09;;;;;;;3.17;0.75;;;;;;;7.98;81.19;97124.66;5050059;28;20025;-67
2021/11/03 07:37:36;;;;;;;2.10;0.50;;;;;;;7.89;82.17;97110.72;5048962;28;20025;-67
2021/11/03 07:40:03;;;;;;;1.02;0.55;;;;;;;7.87;81.49;97125.44;5047737;28;20470;-70
2021/11/03 07:42:28;;;;;;;1.38;0.45;;;;;;;7.93;79.07;97121.03;5048109;28;20029;-70
2021/11/03 07:44:53;;;;;;;0.73;0.30;;;;;;;8.03;78.06;97105.97;5045378;28;20113;-72
2021/11/03 07:47:19;;;;;;;1.08;0.30;;;;;;;8.10;77.95;97105.88;5050060;28;20032;-70
2021/11/03 07:49:44;;;;;;;1.55;0.40;;;;;;;8.19;76.89;97117.13;5043994;28;20025;-69
2021/11/03 07:52:10;;;;;;;0.40;0.40;;;;;;;8.41;74.14;97129.09;5044199;28;20391;-71
2021/11/03 07:54:35;;;;;;;2.05;0.60;;;;;;;8.42;75.20;97133.41;5044875;28;20029;-70
2021/11/03 07:57:01;;;;;;;1.30;0.55;;;;;;;8.34;77.92;97144.50;5046522;28;20059;-69
2021/11/03 07:59:26;;;;;;;1.25;0.60;;;;;;;8.11;80.28;97148.72;5050431;28;20403;-69
2021/11/03 08:01:52;;;;;;;0.80;0.60;;;;;;;8.06;82.64;97126.22;5045548;28;20039;-70
2021/11/03 08:04:18;;;;;;;1.15;0.68;;;;;;;7.98;84.05;97108.50;5049099;28;20033;-68
2021/11/03 08:06:44;;;;;;;1.02;0.73;;;;;;;8.07;83.65;97117.13;5046446;28;20016;-67
2021/11/03 08:09:10;;;;;;;1.25;0.60;;;;;;;8.27;84.52;97114.13;5046179;28;20079;-67
2021/11/03 08:11:46;;;;;;;1.17;0.60;;;;;;;8.44;86.17;97128.63;5051874;28;20032;-69
2021/11/03 08:14:12;;;;;;;3.88;1.40;;;;;;;8.29;85.81;97104.75;5063507;28;20059;-67
2021/11/03 08:17:07;;;;;;;4.32;1.50;;;;;;;8.60;84.39;97129.00;5049121;28;20030;-71
2021/11/03 08:19:38;;;;;;;2.45;1.52;;;;;;;8.80;84.25;97105.19;5050462;28;20028;-75
2021/11/03 08:22:05;;;;;;;2.40;1.20;;;;;;;8.92;85.50;97097.94;5056296;28;20028;-72
2021/11/03 08:24:31;;;;;;;3.53;1.13;;;;;;;8.85;83.91;97097.22;5054330;28;20060;-72
2021/11/03 08:26:56;;;;;;;1.35;0.70;;;;;;;8.99;77.15;97087.88;5055763;28;20029;-74
2021/11/03 08:29:23;;;;;;;1.15;0.75;;;;;;;8.87;80.83;97076.25;5036802;28;20024;-73
2021/11/03 08:31:51;;;;;;;1.58;0.80;;;;;;;8.86;81.22;97060.31;5037429;28;20041;-74
2021/11/03 08:34:17;;;;;;;0.60;0.50;;;;;;;9.26;75.62;97079.28;5034169;28;20033;-73
2021/11/03 08:36:43;;;;;;;1.33;0.70;;;;;;;9.27;75.98;97067.41;5045140;28;20048;-73
2021/11/03 08:39:09;;;;;;;1.55;0.65;;;;;;;9.43;73.53;97061.28;5049152;28;20087;-74
2021/11/03 08:41:35;;;;;;;1.50;0.80;;;;;;;9.27;74.14;97051.22;5049764;28;20150;-75
2021/11/03 08:44:01;;;;;;;1.27;0.70;;;;;;;9.23;75.57;97054.66;5054350;28;20063;-78
2021/11/03 08:46:27;;;;;;;0.93;0.70;;;;;;;9.37;77.08;97064.94;5053516;28;20024;-75
2021/11/03 08:48:55;;;;;;;1.63;0.88;;;;;;;9.23;79.96;97055.47;5053669;28;20032;-77
2021/11/03 08:51:21;;;;;;;2.75;0.90;;;;;;;9.08;81.56;97041.66;5052981;28;20049;-72
2021/11/03 08:53:46;;;;;;;1.08;0.70;;;;;;;8.86;79.54;97047.66;5048540;28;20064;-74
2021/11/03 08:56:12;;;;;;;3.03;0.95;;;;;;;8.73;78.03;97029.84;5033744;28;20357;-75
2021/11/03 08:58:37;;;;;;;4.25;1.17;;;;;;;9.09;79.05;97070.25;5054440;28;20028;-75
2021/11/03 09:01:03;;;;;;;1.25;0.88;;;;;;;9.07;78.55;97050.81;5036377;28;20029;-73
2021/11/03 09:03:28;;;;;;;2.50;1.55;;;;;;;9.23;78.39;97070.84;5045226;28;20055;-73
2021/11/03 09:05:53;;;;;;;2.65;1.50;;;;;;;9.34;77.44;97076.19;5053600;28;20021;-75
2021/11/03 09:08:20;;;;;;;3.05;1.40;;;;;;;9.39;75.85;97070.09;5052378;28;20483;-75
2021/11/03 09:10:51;;;;;;;2.15;1.38;;;;;;;9.32;77.44;97074.81;5052846;28;20028;-75
2021/11/03 09:13:23;;;;;;;2.35;0.63;;;;;;;9.33;78.96;97061.06;5050887;28;20597;-77
2021/11/03 09:15:50;;;;;;;1.55;0.77;;;;;;;9.27;79.50;97083.59;5053248;28;20032;-70
2021/11/03 09:18:16;;;;;;;1.95;0.80;;;;;;;9.00;81.42;97081.41;5041960;28;20033;-75
2021/11/03 09:20:44;;;;;;;1.15;0.70;;;;;;;9.18;82.84;97098.53;5034402;28;20113;-76
2021/11/03 09:23:10;;;;;;;1.77;0.68;;;;;;;9.14;83.19;97106.28;5040295;28;20033;-73
2021/11/03 09:25:36;;;;;;;1.88;0.85;;;;;;;9.20;83.88;97107.22;5041211;28;20057;-72
2021/11/03 09:28:03;;;;;;;1.63;0.50;;;;;;;9.39;77.21;97091.69;5034970;28;20021;-74
2021/11/03 09:30:29;;;;;;;1.55;0.63;;;;;;;9.73;77.66;97098.06;5053309;28;20028;-71
2021/11/03 09:32:58;;;;;;;1.98;1.15;;;;;;;9.41;76.00;97063.41;5051734;28;20040;-75
2021/11/03 09:35:27;;;;;;;1.65;0.80;;;;;;;10.00;73.33;97092.06;5037568;28;20528;-69
2021/11/03 09:37:52;;;;;;;1.83;0.77;;;;;;;10.14;73.66;97063.72;5041645;28;20039;-74
2021/11/03 09:40:27;;;;;;;4.15;1.15;;;;;;;10.68;72.68;97085.72;5049651;28;20405;-75
2021/11/03 09:42:54;;;;;;;4.65;0.85;;;;;;;10.70;71.45;97059.25;5051885;28;20802;-69
2021/11/03 09:45:24;;;;;;;1.33;0.77;;;;;;;11.28;71.15;97083.34;5044352;28;20112;-70
2021/11/03 09:48:35;;;;;;;1.25;0.65;;;;;;;11.62;70.98;97082.16;5063424;22;20083;-68
2021/11/03 09:51:12;;;;;;;1.58;0.60;;;;;;;11.64;69.00;97095.47;5011825;28;20042;-70
2021/11/03 09:53:46;;;;;;;0.88;0.60;;;;;;;11.86;67.73;97103.59;5008746;28;20117;-70
2021/11/03 09:56:15;;;;;;;1.42;0.80;;;;;;;11.63;68.18;97102.78;5032985;28;20052;-70
2021/11/03 09:58:56;;;;;;;3.58;1.30;;;;;;;11.58;69.71;97107.28;5026747;28;20026;-70
2021/11/03 10:01:57;;;;;;;5.63;1.08;;;;;;;11.51;71.06;97107.50;5014444;28;20044;-70
2021/11/03 10:04:35;;;;;;;2.65;0.77;;;;;;;11.91;69.52;97122.63;4993812;28;20077;-72
2021/11/03 10:07:08;;;;;;;1.73;1.00;;;;;;;11.63;67.78;97120.91;5006955;28;20029;-72
2021/11/03 10:09:38;;;;;;;1.30;0.63;;;;;;;12.00;67.32;97131.97;5011427;28;20037;-72
2021/11/03 10:12:09;;;;;;;;;;;;;;;11.68;66.96;97109.31;5012168;28;20053;-70
2021/11/03 10:14:34;;;;;;;0.88;0.57;;;;;;;11.67;67.91;97094.16;5012828;28;19913;-73
2021/11/03 10:17:23;;;;;;;1.33;0.70;;;;;;;11.51;69.80;97096.66;5014509;28;20110;-73
2021/11/03 10:19:50;;;;;;;2.65;0.70;;;;;;;11.48;69.27;97091.75;5010179;28;20105;-69
2021/11/03 10:22:18;;;;;;;1.45;0.75;;;;;;;11.37;68.37;97096.22;5007359;28;20072;-70
2021/11/03 10:24:47;;;;;;;1.30;0.70;;;;;;;11.15;71.02;97098.88;5008387;28;20499;-71
2021/11/03 10:27:19;;;;;;;1.23;0.60;;;;;;;11.06;71.49;97100.38;5014720;28;20034;-71
2021/11/03 10:29:49;;;;;;;0.75;0.50;;;;;;;11.10;69.10;97100.69;5010415;28;20034;-70
2021/11/03 10:32:32;;;;;;;2.05;0.57;;;;;;;10.96;69.86;97100.22;5016623;28;20029;-71
2021/11/03 10:35:18;;;;;;;1.73;0.50;;;;;;;10.81;68.56;97110.81;5013597;28;20029;-71
2021/11/03 10:37:47;;;;;;;2.13;0.60;;;;;;;10.71;69.88;97081.69;4997700;28;20036;-74
2021/11/03 10:40:17;;;;;;;1.45;0.70;;;;;;;10.97;70.84;97112.69;5008061;28;20022;-74
2021/11/03 10:43:00;;;;;;;1.00;0.70;;;;;;;10.89;68.50;97118.50;5010597;28;20028;-71
2021/11/03 10:45:37;;;;;;;0.95;0.50;;;;;;;10.84;69.68;97118.44;5001298;28;20022;-71
2021/11/03 10:48:10;;;;;;;3.10;0.73;;;;;;;10.66;69.55;97114.06;5011074;28;20022;-72
2021/11/03 10:51:13;;;;;;;1.13;0.70;;;;;;;10.56;69.01;97122.00;5009560;28;20129;-70
2021/11/03 10:53:39;;;;;;;3.60;0.70;;;;;;;10.68;69.54;97120.06;5009022;28;20092;-70
2021/11/03 10:56:15;;;;;;;1.20;0.55;;;;;;;10.77;68.84;97117.75;5007696;28;20026;-70
2021/11/03 10:58:50;;;;;;;2.70;0.60;;;;;;;11.07;69.00;97117.44;5010409;28;20118;-71
2021/11/03 11:01:47;;;;;;;1.52;0.70;;;;;;;11.16;69.90;97114.06;5010037;28;20058;-71
2021/11/03 11:04:20;;;;;;;0.57;0.45;;;;;;;11.47;68.50;97114.47;5004074;28;20052;-71
2021/11/03 11:06:46;;;;;;;1.13;0.63;;;;;;;11.53;66.17;97116.19;5008277;28;20073;-72
2021/11/03 11:09:23;;;;;;;0.65;0.60;;;;;;;11.56;64.87;97126.53;5010253;28;20033;-71
2021/11/03 11:12:04;;;;;;;1.85;0.80;;;;;;;11.56;65.14;97109.47;5008567;28;20034;-71
2021/11/03 11:14:32;;;;;;;0.70;0.50;;;;;;;11.56;66.09;97129.22;5012082;28;20914;-71
2021/11/03 11:17:19;;;;;;;0.98;0.60;;;;;;;11.33;63.75;97100.47;5013173;28;20030;-70
2021/11/03 11:19:51;;;;;;;2.33;0.63;;;;;;;11.18;64.41;97125.44;5009042;28;20033;-71
2021/11/03 11:22:45;;;;;;;4.07;0.60;;;;;;;11.36;65.98;97121.63;5013209;28;20041;-70
2021/11/03 11:25:18;;;;;;;2.83;0.80;;;;;;;11.24;70.59;97128.22;4994677;28;20030;-71
2021/11/03 11:27:53;;;;;;;2.65;1.00;;;;;;;11.12;74.20;97129.16;5022842;28;20065;-71
2021/11/03 11:30:24;;;;;;;1.92;1.13;;;;;;;11.03;74.91;97127.94;5019345;28;20029;-70
2021/11/03 11:33:20;;;;;;;1.33;0.90;;;;;;;10.98;74.13;97130.56;5012016;28;20030;-70
2021/11/03 11:36:27;;;;;;;2.45;1.08;;;;;;;10.96;74.00;97138.09;5012378;28;20084;-70
2021/11/03 11:38:55;;;;;;;5.35;1.00;;;;;;;10.96;74.07;97135.41;5006831;28;20096;-70
2021/11/03 11:41:29;;;;;;;2.28;1.25;;;;;;;10.85;76.79;97136.31;5011774;28;20041;-70
2021/11/03 11:43:58;;;;;;;3.25;1.15;;;;;;;10.83;78.78;97141.97;5015105;28;20209;-70